createdAt,value
2023-04-01T00:03:06.237Z,96661.84
2023-04-01T00:08:08.818Z,96663.56
2023-04-01T00:13:14.354Z,96668.88
2023-04-01T00:18:17.221Z,96664.31
2023-04-01T00:23:21.249Z,96658.34
2023-04-01T00:28:29.872Z,96654.63
2023-04-01T00:33:32.492Z,96674.41
2023-04-01T00:38:35.808Z,96664.13
2023-04-01T00:43:38.381Z,96667.91
2023-04-01T00:48:44.990Z,96672.16
2023-04-01T00:53:51.152Z,96672.72
2023-04-01T00:58:59.461Z,96676.97
2023-04-01T01:04:05.015Z,96684.78
2023-04-01T01:09:27.533Z,96676.97
2023-04-01T01:15:07.837Z,96663.56
2023-04-01T01:20:33.365Z,96660.28
2023-04-01T01:26:00.030Z,96668.47
2023-04-01T01:31:26.618Z,96670.13
2023-04-01T01:36:36.043Z,96673.22
2023-04-01T01:41:44.132Z,96672.81
2023-04-01T01:46:49.053Z,96674.59
2023-04-01T01:51:51.656Z,96669.19
2023-04-01T01:57:04.526Z,96674.28
2023-04-01T02:02:09.840Z,96672.19
2023-04-01T02:07:19.597Z,96659.84
2023-04-01T02:12:24.871Z,96665.34
2023-04-01T02:17:31.195Z,96666.16
2023-04-01T02:22:38.216Z,96670.50
2023-04-01T02:27:43.994Z,96673.91
2023-04-01T02:32:47.656Z,96674.31
2023-04-01T02:37:51.798Z,96675.13
2023-04-01T02:42:54.965Z,96669.28
2023-04-01T02:47:57.522Z,96665.56
2023-04-01T02:53:00.098Z,96673.88
2023-04-01T02:58:03.085Z,96675.81
2023-04-01T03:03:06.578Z,96668.22
2023-04-01T03:08:09.370Z,96674.09
2023-04-01T03:13:12.091Z,96676.19
2023-04-01T03:18:14.794Z,96669.03
2023-04-01T03:23:20.588Z,96667.16
2023-04-01T03:28:23.107Z,96676.22
2023-04-01T03:33:25.843Z,96672.81
2023-04-01T03:38:28.424Z,96676.19
2023-04-01T03:43:31.123Z,96674.97
2023-04-01T03:48:34.221Z,96674.09
2023-04-01T03:53:37.290Z,96669.88
2023-04-01T03:58:42.005Z,96658.09
2023-04-01T04:03:45.911Z,96653.91
2023-04-01T04:08:50.344Z,96652.69
2023-04-01T04:13:54.020Z,96658.72
2023-04-01T04:18:57.045Z,96652.34
2023-04-01T04:24:04.604Z,96654.81
2023-04-01T04:29:27.149Z,96642.84
2023-04-01T04:34:29.709Z,96655.19
2023-04-01T04:39:32.684Z,96646.97
2023-04-01T04:44:35.673Z,96654.25
2023-04-01T04:49:38.337Z,96652.63
2023-04-01T04:54:44.620Z,96646.69
2023-04-01T04:59:47.286Z,96639.78
2023-04-01T05:04:55.770Z,96642.94
2023-04-01T05:09:58.342Z,96641.59
2023-04-01T05:15:01.505Z,96626.78
2023-04-01T05:20:05.400Z,96630.69
2023-04-01T05:25:08.293Z,96621.91
2023-04-01T05:30:11.643Z,96612.34
2023-04-01T05:35:28.733Z,96612.13
2023-04-01T05:40:31.919Z,96623.19
2023-04-01T05:45:35.673Z,96606.75
2023-04-01T05:50:38.239Z,96608.75
2023-04-01T05:55:41.540Z,96607.16
2023-04-01T06:00:44.714Z,96614.28
2023-04-01T06:05:48.903Z,96602.63
2023-04-01T06:11:06.312Z,96594.75
2023-04-01T06:16:28.362Z,96592.13
2023-04-01T06:21:55.244Z,96591.91
2023-04-01T06:27:15.771Z,96590.69
2023-04-01T06:32:25.375Z,96594.31
2023-04-01T06:37:59.757Z,96595.69
2023-04-01T06:43:10.035Z,96605.78
2023-04-01T06:48:38.517Z,96602.44
2023-04-01T06:54:02.858Z,96595.22
2023-04-01T06:59:33.232Z,96594.00
2023-04-01T07:04:44.330Z,96604.56
2023-04-01T07:09:55.210Z,96606.66
2023-04-01T07:15:44.798Z,96597.03
2023-04-01T07:20:50.130Z,96608.19
2023-04-01T07:26:16.175Z,96616.94
2023-04-01T07:31:37.202Z,96622.38
2023-04-01T07:37:02.560Z,96627.50
2023-04-01T07:42:23.594Z,96629.31
2023-04-01T07:47:42.707Z,96636.22
2023-04-01T07:52:54.372Z,96627.78
2023-04-01T07:58:22.109Z,96627.78
2023-04-01T08:03:35.961Z,96624.50
2023-04-01T08:09:02.856Z,96630.56
2023-04-01T08:14:49.114Z,96627.22
2023-04-01T08:20:28.784Z,96638.69
2023-04-01T08:25:52.654Z,96636.44
2023-04-01T08:31:04.722Z,96636.84
2023-04-01T08:36:26.022Z,96635.81
2023-04-01T08:42:10.805Z,96652.88
2023-04-01T08:47:43.441Z,96652.53
2023-04-01T08:52:53.752Z,96646.16
2023-04-01T08:58:15.016Z,96634.66
2023-04-01T09:03:28.108Z,96645.50
2023-04-01T09:08:46.115Z,96636.38
2023-04-01T09:14:10.680Z,96636.84
2023-04-01T09:19:44.373Z,96631.19
2023-04-01T09:25:07.946Z,96651.38
2023-04-01T09:30:34.211Z,96641.38
2023-04-01T09:35:51.912Z,96653.25
2023-04-01T09:41:07.870Z,96651.50
2023-04-01T09:46:56.518Z,96657.09
2023-04-01T09:52:30.301Z,96669.03
2023-04-01T09:57:54.550Z,96667.06
2023-04-01T10:03:41.681Z,96675.22
2023-04-01T10:09:18.987Z,96675.81
2023-04-01T10:15:00.948Z,96675.81
2023-04-01T10:20:18.572Z,96679.13
2023-04-01T10:25:31.444Z,96677.84
2023-04-01T10:30:59.813Z,96688.78
2023-04-01T10:36:31.239Z,96679.53
2023-04-01T10:41:53.197Z,96690.75
2023-04-01T10:47:29.431Z,96686.81
2023-04-01T10:52:32.120Z,96681.41
2023-04-01T10:58:18.048Z,96677.84
2023-04-01T11:04:29.858Z,96689.22
2023-04-01T11:09:58.362Z,96687.34
2023-04-01T11:15:25.814Z,96684.50
2023-04-01T11:20:59.727Z,96706.03
2023-04-01T11:26:07.281Z,96687.94
2023-04-01T11:31:30.539Z,96684.56
2023-04-01T11:37:14.891Z,96699.13
2023-04-01T11:42:42.203Z,96690.28
2023-04-01T11:48:37.466Z,96700.84
2023-04-01T11:54:04.680Z,96713.25
2023-04-01T11:59:51.725Z,96697.03
2023-04-01T12:05:19.502Z,96710.34
2023-04-01T12:10:41.692Z,96722.78
2023-04-01T12:16:19.079Z,96715.84
2023-04-01T12:21:38.800Z,96734.78
2023-04-01T12:27:11.641Z,96722.16
2023-04-01T12:33:08.012Z,96721.25
2023-04-01T12:38:32.131Z,96721.50
2023-04-01T12:43:57.082Z,96724.34
2023-04-01T12:49:28.758Z,96728.34
2023-04-01T12:55:01.001Z,96728.16
2023-04-01T13:00:24.652Z,96724.63
2023-04-01T13:05:39.394Z,96746.75
2023-04-01T13:11:15.716Z,96739.28
2023-04-01T13:16:27.724Z,96749.28
2023-04-01T13:22:14.608Z,96757.72
2023-04-01T13:27:30.876Z,96754.78
2023-04-01T13:33:04.413Z,96753.56
2023-04-01T13:38:38.949Z,96761.59
2023-04-01T13:43:50.730Z,96761.84
2023-04-01T13:49:38.074Z,96775.59
2023-04-01T13:55:05.689Z,96772.19
2023-04-01T14:00:17.990Z,96765.72
2023-04-01T14:05:43.125Z,96767.13
2023-04-01T14:10:52.385Z,96774.03
2023-04-01T14:16:07.139Z,96781.38
2023-04-01T14:21:24.694Z,96782.25
2023-04-01T14:27:26.220Z,96784.72
2023-04-01T14:33:10.049Z,96788.97
2023-04-01T14:38:54.954Z,96787.00
2023-04-01T14:44:16.545Z,96789.03
2023-04-01T14:49:34.349Z,96792.63
2023-04-01T14:54:42.055Z,96789.13
2023-04-01T14:59:52.177Z,96792.88
2023-04-01T15:05:31.713Z,96794.28
2023-04-01T15:11:04.423Z,96791.47
2023-04-01T15:16:19.250Z,96802.41
2023-04-01T15:21:24.574Z,96802.19
2023-04-01T15:26:54.584Z,96813.38
2023-04-01T15:32:09.609Z,96824.38
2023-04-01T15:37:34.991Z,96817.31
2023-04-01T15:43:05.734Z,96836.91
2023-04-01T15:48:11.147Z,96829.69
2023-04-01T15:53:25.692Z,96839.63
2023-04-01T15:58:38.015Z,96828.97
2023-04-01T16:03:57.046Z,96837.00
2023-04-01T16:09:23.861Z,96847.00
2023-04-01T16:15:20.773Z,96846.38
2023-04-01T16:20:43.075Z,96850.91
2023-04-01T16:26:07.235Z,96854.56
2023-04-01T16:31:28.669Z,96857.03
2023-04-01T16:36:49.898Z,96858.81
2023-04-01T16:42:13.861Z,96854.66
2023-04-01T16:47:29.651Z,96864.03
2023-04-01T16:52:50.791Z,96869.66
2023-04-01T16:57:59.661Z,96872.38
2023-04-01T17:03:43.748Z,96874.66
2023-04-01T17:09:18.094Z,96871.44
2023-04-01T17:14:44.572Z,96877.25
2023-04-01T17:20:01.833Z,96880.28
2023-04-01T17:25:15.968Z,96876.34
2023-04-01T17:30:28.510Z,96893.91
2023-04-01T17:35:40.426Z,96900.25
2023-04-01T17:41:27.987Z,96899.34
2023-04-01T17:46:45.919Z,96911.44
2023-04-01T17:52:32.432Z,96909.91
2023-04-01T17:58:11.926Z,96917.16
2023-04-01T18:03:26.770Z,96931.97
2023-04-01T18:09:19.234Z,96950.75
2023-04-01T18:15:06.769Z,96962.56
2023-04-01T18:20:45.537Z,96971.03
2023-04-01T18:25:53.237Z,96974.03
2023-04-01T18:31:04.518Z,96965.81
2023-04-01T18:36:16.482Z,96978.81
2023-04-01T18:41:28.146Z,96978.81
2023-04-01T18:46:54.042Z,96981.81
2023-04-01T18:52:04.261Z,96995.88
2023-04-01T18:57:14.896Z,97002.75
2023-04-01T19:02:17.525Z,96996.75
2023-04-01T19:07:38.571Z,97003.53
2023-04-01T19:13:11.133Z,97011.06
2023-04-01T19:18:42.859Z,97013.25
2023-04-01T19:30:15.189Z,97007.81
2023-04-01T19:35:40.843Z,97008.06
2023-04-01T19:40:59.153Z,97006.16
2023-04-01T19:46:38.274Z,97017.03
2023-04-01T19:51:52.738Z,97012.09
2023-04-01T19:57:01.019Z,97029.06
2023-04-01T20:02:09.737Z,97043.03
2023-04-01T20:07:38.982Z,97044.31
2023-04-01T20:12:58.141Z,97049.06
2023-04-01T20:18:14.909Z,97050.97
2023-04-01T20:23:48.443Z,97048.69
2023-04-01T20:29:14.179Z,97064.31
2023-04-01T20:34:28.370Z,97059.16
2023-04-01T20:39:49.388Z,97055.69
2023-04-01T20:45:16.762Z,97071.41
2023-04-01T20:50:31.882Z,97080.94
2023-04-01T20:56:05.917Z,97087.69
2023-04-01T21:01:14.444Z,97091.38
2023-04-01T21:06:52.492Z,97081.47
2023-04-01T21:12:14.283Z,97093.88
2023-04-01T21:17:24.962Z,97094.72
2023-04-01T21:22:47.859Z,97092.34
2023-04-01T21:28:11.746Z,97085.66
2023-04-01T21:33:36.372Z,97096.88
2023-04-01T21:39:08.505Z,97106.13
2023-04-01T21:44:38.132Z,97112.09
2023-04-01T21:50:08.996Z,97120.00
2023-04-01T21:55:50.431Z,97123.84
2023-04-01T22:01:40.623Z,97123.72
2023-04-01T22:06:49.762Z,97133.94
2023-04-01T22:12:08.990Z,97127.22
2023-04-01T22:17:49.936Z,97129.28
2023-04-01T22:22:58.193Z,97132.63
2023-04-01T22:28:09.263Z,97137.31
2023-04-01T22:33:34.327Z,97145.13
2023-04-01T22:39:05.104Z,97152.19
2023-04-01T22:44:26.877Z,97151.63
2023-04-01T22:49:49.579Z,97152.06
2023-04-01T22:55:00.958Z,97150.44
2023-04-01T23:00:31.335Z,97159.00
2023-04-01T23:05:41.507Z,97154.00
2023-04-01T23:11:03.770Z,97167.34
2023-04-01T23:16:09.434Z,97170.72
2023-04-01T23:21:41.604Z,97174.41
2023-04-01T23:26:53.822Z,97174.19
2023-04-01T23:32:05.058Z,97185.47
2023-04-01T23:37:17.852Z,97191.66
2023-04-01T23:42:30.171Z,97198.41
2023-04-01T23:47:36.853Z,97200.56
2023-04-01T23:52:47.060Z,97205.97
2023-04-01T23:58:27.477Z,97202.06
